sensor_id;sensor_type;location;lat;lon;timestamp;P1;durP1;ratioP1;P2;durP2;ratioP2
23555;SDS011;11956;53.184;8.578;2023-07-30T00:02:27;14.93;;;13.32;;
23555;SDS011;11956;53.184;8.578;2023-07-30T00:05:28;13.52;;;11.88;;
23555;SDS011;11956;53.184;8.578;2023-07-30T00:08:29;16.15;;;12.27;;
23555;SDS011;11956;53.184;8.578;2023-07-30T00:11:30;14.00;;;12.25;;
23555;SDS011;11956;53.184;8.578;2023-07-30T00:14:31;16.80;;;14.00;;
23555;SDS011;11956;53.184;8.578;2023-07-30T00:17:32;17.48;;;14.50;;
23555;SDS011;11956;53.184;8.578;2023-07-30T00:20:35;15.38;;;13.05;;
23555;SDS011;11956;53.184;8.578;2023-07-30T00:23:36;18.58;;;13.43;;
23555;SDS011;11956;53.184;8.578;2023-07-30T00:26:37;16.90;;;13.75;;
23555;SDS011;11956;53.184;8.578;2023-07-30T00:29:38;15.95;;;13.60;;
23555;SDS011;11956;53.184;8.578;2023-07-30T00:32:39;15.15;;;13.55;;
23555;SDS011;11956;53.184;8.578;2023-07-30T00:35:43;19.48;;;15.13;;
23555;SDS011;11956;53.184;8.578;2023-07-30T00:38:44;19.58;;;15.70;;
23555;SDS011;11956;53.184;8.578;2023-07-30T00:41:45;17.27;;;14.02;;
23555;SDS011;11956;53.184;8.578;2023-07-30T00:44:46;19.85;;;15.40;;
23555;SDS011;11956;53.184;8.578;2023-07-30T00:47:47;18.25;;;14.60;;
23555;SDS011;11956;53.184;8.578;2023-07-30T00:50:48;17.33;;;13.57;;
23555;SDS011;11956;53.184;8.578;2023-07-30T00:53:49;19.38;;;15.85;;
23555;SDS011;11956;53.184;8.578;2023-07-30T00:56:51;24.88;;;17.67;;
23555;SDS011;11956;53.184;8.578;2023-07-30T00:59:53;18.17;;;14.33;;
23555;SDS011;11956;53.184;8.578;2023-07-30T01:02:55;21.13;;;15.80;;
23555;SDS011;11956;53.184;8.578;2023-07-30T01:05:56;18.67;;;15.73;;
23555;SDS011;11956;53.184;8.578;2023-07-30T01:08:57;25.05;;;18.02;;
23555;SDS011;11956;53.184;8.578;2023-07-30T01:11:58;21.00;;;15.15;;
23555;SDS011;11956;53.184;8.578;2023-07-30T01:15:00;21.48;;;16.50;;
23555;SDS011;11956;53.184;8.578;2023-07-30T01:18:01;28.27;;;17.13;;
23555;SDS011;11956;53.184;8.578;2023-07-30T01:21:03;24.13;;;15.95;;
23555;SDS011;11956;53.184;8.578;2023-07-30T01:24:04;18.13;;;14.43;;
23555;SDS011;11956;53.184;8.578;2023-07-30T01:27:05;20.73;;;14.27;;
23555;SDS011;11956;53.184;8.578;2023-07-30T01:30:14;18.23;;;13.93;;
23555;SDS011;11956;53.184;8.578;2023-07-30T01:33:26;20.75;;;14.15;;
23555;SDS011;11956;53.184;8.578;2023-07-30T01:36:28;19.05;;;13.65;;
23555;SDS011;11956;53.184;8.578;2023-07-30T01:39:31;21.90;;;15.47;;
23555;SDS011;11956;53.184;8.578;2023-07-30T01:42:33;23.27;;;16.65;;
23555;SDS011;11956;53.184;8.578;2023-07-30T01:45:34;26.80;;;16.92;;
23555;SDS011;11956;53.184;8.578;2023-07-30T01:48:35;27.15;;;18.38;;
23555;SDS011;11956;53.184;8.578;2023-07-30T01:51:36;31.30;;;19.65;;
23555;SDS011;11956;53.184;8.578;2023-07-30T01:54:37;19.60;;;15.55;;
23555;SDS011;11956;53.184;8.578;2023-07-30T01:57:38;23.52;;;17.60;;
23555;SDS011;11956;53.184;8.578;2023-07-30T02:00:39;16.30;;;12.63;;
23555;SDS011;11956;53.184;8.578;2023-07-30T02:03:40;27.35;;;17.73;;
23555;SDS011;11956;53.184;8.578;2023-07-30T02:06:41;25.27;;;17.30;;
23555;SDS011;11956;53.184;8.578;2023-07-30T02:09:43;30.55;;;18.55;;
23555;SDS011;11956;53.184;8.578;2023-07-30T02:12:44;20.73;;;15.32;;
23555;SDS011;11956;53.184;8.578;2023-07-30T02:15:45;26.13;;;16.13;;
23555;SDS011;11956;53.184;8.578;2023-07-30T02:18:46;28.38;;;16.45;;
23555;SDS011;11956;53.184;8.578;2023-07-30T02:21:47;20.88;;;15.40;;
23555;SDS011;11956;53.184;8.578;2023-07-30T02:24:48;19.35;;;13.35;;
23555;SDS011;11956;53.184;8.578;2023-07-30T02:27:49;28.33;;;17.80;;
23555;SDS011;11956;53.184;8.578;2023-07-30T02:30:50;22.20;;;15.70;;
23555;SDS011;11956;53.184;8.578;2023-07-30T02:33:51;23.98;;;15.10;;
23555;SDS011;11956;53.184;8.578;2023-07-30T02:36:51;23.95;;;16.10;;
23555;SDS011;11956;53.184;8.578;2023-07-30T02:39:52;19.02;;;13.27;;
23555;SDS011;11956;53.184;8.578;2023-07-30T02:42:53;21.02;;;14.77;;
23555;SDS011;11956;53.184;8.578;2023-07-30T02:45:54;22.90;;;16.45;;
23555;SDS011;11956;53.184;8.578;2023-07-30T02:48:55;25.00;;;16.92;;
23555;SDS011;11956;53.184;8.578;2023-07-30T02:51:55;26.33;;;16.80;;
23555;SDS011;11956;53.184;8.578;2023-07-30T02:54:56;27.15;;;17.63;;
23555;SDS011;11956;53.184;8.578;2023-07-30T02:57:57;27.63;;;17.05;;
23555;SDS011;11956;53.184;8.578;2023-07-30T03:01:05;23.45;;;14.23;;
23555;SDS011;11956;53.184;8.578;2023-07-30T03:04:07;26.58;;;17.65;;
23555;SDS011;11956;53.184;8.578;2023-07-30T03:07:09;25.83;;;16.55;;
23555;SDS011;11956;53.184;8.578;2023-07-30T03:10:10;23.90;;;17.70;;
23555;SDS011;11956;53.184;8.578;2023-07-30T03:13:10;29.55;;;17.45;;
23555;SDS011;11956;53.184;8.578;2023-07-30T03:16:11;33.53;;;19.00;;
23555;SDS011;11956;53.184;8.578;2023-07-30T03:19:12;24.92;;;17.35;;
23555;SDS011;11956;53.184;8.578;2023-07-30T03:22:13;27.25;;;16.70;;
23555;SDS011;11956;53.184;8.578;2023-07-30T03:25:14;25.30;;;17.08;;
23555;SDS011;11956;53.184;8.578;2023-07-30T03:28:15;25.63;;;14.82;;
23555;SDS011;11956;53.184;8.578;2023-07-30T03:31:16;25.58;;;15.35;;
23555;SDS011;11956;53.184;8.578;2023-07-30T03:34:17;32.28;;;17.65;;
23555;SDS011;11956;53.184;8.578;2023-07-30T03:37:18;32.50;;;16.98;;
23555;SDS011;11956;53.184;8.578;2023-07-30T03:40:19;31.02;;;16.95;;
23555;SDS011;11956;53.184;8.578;2023-07-30T03:43:20;37.45;;;17.25;;
23555;SDS011;11956;53.184;8.578;2023-07-30T03:46:21;30.23;;;14.05;;
23555;SDS011;11956;53.184;8.578;2023-07-30T03:49:21;32.80;;;17.92;;
23555;SDS011;11956;53.184;8.578;2023-07-30T03:52:22;24.33;;;13.80;;
23555;SDS011;11956;53.184;8.578;2023-07-30T03:55:23;31.67;;;15.13;;
23555;SDS011;11956;53.184;8.578;2023-07-30T03:58:24;27.33;;;14.13;;
23555;SDS011;11956;53.184;8.578;2023-07-30T04:01:25;26.00;;;12.82;;
23555;SDS011;11956;53.184;8.578;2023-07-30T04:04:26;24.25;;;12.45;;
23555;SDS011;11956;53.184;8.578;2023-07-30T04:07:27;25.08;;;13.02;;
23555;SDS011;11956;53.184;8.578;2023-07-30T04:10:28;26.75;;;13.27;;
23555;SDS011;11956;53.184;8.578;2023-07-30T04:13:29;28.25;;;11.40;;
23555;SDS011;11956;53.184;8.578;2023-07-30T04:16:30;27.90;;;12.73;;
23555;SDS011;11956;53.184;8.578;2023-07-30T04:19:31;21.35;;;11.23;;
23555;SDS011;11956;53.184;8.578;2023-07-30T04:22:32;19.75;;;9.52;;
23555;SDS011;11956;53.184;8.578;2023-07-30T04:25:33;24.70;;;10.95;;
23555;SDS011;11956;53.184;8.578;2023-07-30T04:28:34;19.20;;;9.18;;
23555;SDS011;11956;53.184;8.578;2023-07-30T04:31:35;22.25;;;8.57;;
23555;SDS011;11956;53.184;8.578;2023-07-30T04:34:36;22.25;;;9.48;;
23555;SDS011;11956;53.184;8.578;2023-07-30T04:37:38;22.38;;;8.02;;
23555;SDS011;11956;53.184;8.578;2023-07-30T04:40:39;16.85;;;7.65;;
23555;SDS011;11956;53.184;8.578;2023-07-30T04:43:40;19.30;;;7.80;;
23555;SDS011;11956;53.184;8.578;2023-07-30T04:46:40;19.23;;;7.30;;
23555;SDS011;11956;53.184;8.578;2023-07-30T04:49:41;14.70;;;6.95;;
23555;SDS011;11956;53.184;8.578;2023-07-30T04:52:42;12.07;;;5.68;;
23555;SDS011;11956;53.184;8.578;2023-07-30T04:55:43;12.57;;;6.15;;
23555;SDS011;11956;53.184;8.578;2023-07-30T04:58:44;13.05;;;5.57;;
23555;SDS011;11956;53.184;8.578;2023-07-30T05:01:45;17.02;;;6.63;;
23555;SDS011;11956;53.184;8.578;2023-07-30T05:04:46;13.35;;;6.03;;
23555;SDS011;11956;53.184;8.578;2023-07-30T05:07:47;17.05;;;6.35;;
23555;SDS011;11956;53.184;8.578;2023-07-30T05:10:48;12.25;;;5.13;;
23555;SDS011;11956;53.184;8.578;2023-07-30T05:13:49;12.70;;;5.65;;
23555;SDS011;11956;53.184;8.578;2023-07-30T05:16:50;10.32;;;4.38;;
23555;SDS011;11956;53.184;8.578;2023-07-30T05:19:50;11.02;;;4.28;;
23555;SDS011;11956;53.184;8.578;2023-07-30T05:22:51;9.63;;;3.20;;
23555;SDS011;11956;53.184;8.578;2023-07-30T05:25:52;9.23;;;3.25;;
23555;SDS011;11956;53.184;8.578;2023-07-30T05:28:53;11.82;;;3.10;;
23555;SDS011;11956;53.184;8.578;2023-07-30T05:31:54;10.07;;;3.58;;
23555;SDS011;11956;53.184;8.578;2023-07-30T05:34:55;10.52;;;3.30;;
23555;SDS011;11956;53.184;8.578;2023-07-30T05:37:55;7.63;;;2.55;;
23555;SDS011;11956;53.184;8.578;2023-07-30T05:40:56;12.02;;;3.38;;
23555;SDS011;11956;53.184;8.578;2023-07-30T05:43:57;10.65;;;3.30;;
23555;SDS011;11956;53.184;8.578;2023-07-30T05:46:58;9.68;;;3.13;;
23555;SDS011;11956;53.184;8.578;2023-07-30T05:49:59;10.35;;;3.10;;
23555;SDS011;11956;53.184;8.578;2023-07-30T05:53:02;10.30;;;2.78;;
23555;SDS011;11956;53.184;8.578;2023-07-30T05:56:04;9.13;;;3.20;;
23555;SDS011;11956;53.184;8.578;2023-07-30T05:59:05;10.02;;;3.15;;
23555;SDS011;11956;53.184;8.578;2023-07-30T06:02:06;8.10;;;3.10;;
23555;SDS011;11956;53.184;8.578;2023-07-30T06:05:07;9.60;;;3.08;;
23555;SDS011;11956;53.184;8.578;2023-07-30T06:08:08;12.00;;;3.25;;
23555;SDS011;11956;53.184;8.578;2023-07-30T06:11:09;7.82;;;3.38;;
23555;SDS011;11956;53.184;8.578;2023-07-30T06:14:10;10.90;;;4.25;;
23555;SDS011;11956;53.184;8.578;2023-07-30T06:17:11;13.88;;;4.55;;
23555;SDS011;11956;53.184;8.578;2023-07-30T06:20:13;16.45;;;4.57;;
23555;SDS011;11956;53.184;8.578;2023-07-30T06:23:13;13.40;;;3.63;;
23555;SDS011;11956;53.184;8.578;2023-07-30T06:26:14;8.52;;;3.20;;
23555;SDS011;11956;53.184;8.578;2023-07-30T06:29:15;8.73;;;2.75;;
23555;SDS011;11956;53.184;8.578;2023-07-30T06:32:16;12.95;;;3.60;;
23555;SDS011;11956;53.184;8.578;2023-07-30T06:35:17;9.93;;;3.13;;
23555;SDS011;11956;53.184;8.578;2023-07-30T06:38:18;8.65;;;3.58;;
23555;SDS011;11956;53.184;8.578;2023-07-30T06:41:19;13.80;;;3.50;;
23555;SDS011;11956;53.184;8.578;2023-07-30T06:44:20;9.13;;;3.40;;
23555;SDS011;11956;53.184;8.578;2023-07-30T06:47:21;12.90;;;3.95;;
23555;SDS011;11956;53.184;8.578;2023-07-30T06:50:22;15.13;;;3.45;;
23555;SDS011;11956;53.184;8.578;2023-07-30T06:53:23;8.48;;;3.60;;
23555;SDS011;11956;53.184;8.578;2023-07-30T06:56:23;11.48;;;3.67;;
23555;SDS011;11956;53.184;8.578;2023-07-30T06:59:24;13.27;;;4.10;;
23555;SDS011;11956;53.184;8.578;2023-07-30T07:02:25;15.63;;;4.80;;
23555;SDS011;11956;53.184;8.578;2023-07-30T07:05:26;17.50;;;4.97;;
23555;SDS011;11956;53.184;8.578;2023-07-30T07:08:27;14.52;;;4.38;;
23555;SDS011;11956;53.184;8.578;2023-07-30T07:11:28;14.38;;;4.55;;
23555;SDS011;11956;53.184;8.578;2023-07-30T07:14:29;13.05;;;3.80;;
23555;SDS011;11956;53.184;8.578;2023-07-30T07:17:30;14.18;;;4.72;;
23555;SDS011;11956;53.184;8.578;2023-07-30T07:20:31;14.27;;;3.63;;
23555;SDS011;11956;53.184;8.578;2023-07-30T07:23:32;15.55;;;3.95;;
23555;SDS011;11956;53.184;8.578;2023-07-30T07:26:33;13.60;;;4.20;;
23555;SDS011;11956;53.184;8.578;2023-07-30T07:29:33;14.63;;;4.18;;
23555;SDS011;11956;53.184;8.578;2023-07-30T07:32:34;10.57;;;3.47;;
23555;SDS011;11956;53.184;8.578;2023-07-30T07:35:41;13.93;;;3.58;;
23555;SDS011;11956;53.184;8.578;2023-07-30T07:38:42;13.55;;;3.67;;
23555;SDS011;11956;53.184;8.578;2023-07-30T07:41:42;13.20;;;3.45;;
23555;SDS011;11956;53.184;8.578;2023-07-30T07:44:43;9.65;;;4.15;;
23555;SDS011;11956;53.184;8.578;2023-07-30T07:47:46;12.93;;;3.95;;
23555;SDS011;11956;53.184;8.578;2023-07-30T07:50:46;14.02;;;3.42;;
23555;SDS011;11956;53.184;8.578;2023-07-30T07:53:47;10.13;;;3.28;;
23555;SDS011;11956;53.184;8.578;2023-07-30T07:56:48;11.38;;;3.75;;
23555;SDS011;11956;53.184;8.578;2023-07-30T07:59:49;9.80;;;3.13;;
23555;SDS011;11956;53.184;8.578;2023-07-30T08:02:50;8.48;;;2.80;;
23555;SDS011;11956;53.184;8.578;2023-07-30T08:05:51;11.07;;;3.25;;
23555;SDS011;11956;53.184;8.578;2023-07-30T08:08:51;9.40;;;2.90;;
23555;SDS011;11956;53.184;8.578;2023-07-30T08:11:52;13.73;;;3.55;;
23555;SDS011;11956;53.184;8.578;2023-07-30T08:14:53;13.15;;;3.72;;
23555;SDS011;11956;53.184;8.578;2023-07-30T08:17:56;16.58;;;3.97;;
23555;SDS011;11956;53.184;8.578;2023-07-30T08:20:59;11.55;;;3.03;;
23555;SDS011;11956;53.184;8.578;2023-07-30T08:24:01;11.57;;;3.13;;
23555;SDS011;11956;53.184;8.578;2023-07-30T08:27:02;13.13;;;3.13;;
23555;SDS011;11956;53.184;8.578;2023-07-30T08:30:03;9.77;;;2.88;;
23555;SDS011;11956;53.184;8.578;2023-07-30T08:33:04;11.77;;;3.78;;
23555;SDS011;11956;53.184;8.578;2023-07-30T08:36:05;15.25;;;3.95;;
23555;SDS011;11956;53.184;8.578;2023-07-30T08:39:06;13.73;;;3.58;;
23555;SDS011;11956;53.184;8.578;2023-07-30T08:42:07;11.13;;;3.30;;
23555;SDS011;11956;53.184;8.578;2023-07-30T08:45:08;12.60;;;3.40;;
23555;SDS011;11956;53.184;8.578;2023-07-30T08:48:09;14.88;;;4.00;;
23555;SDS011;11956;53.184;8.578;2023-07-30T08:51:11;14.85;;;4.43;;
23555;SDS011;11956;53.184;8.578;2023-07-30T08:54:14;15.70;;;4.50;;
23555;SDS011;11956;53.184;8.578;2023-07-30T08:57:16;13.43;;;4.40;;
23555;SDS011;11956;53.184;8.578;2023-07-30T09:00:19;13.40;;;4.40;;
23555;SDS011;11956;53.184;8.578;2023-07-30T09:03:21;16.67;;;5.20;;
23555;SDS011;11956;53.184;8.578;2023-07-30T09:06:26;15.88;;;4.50;;
23555;SDS011;11956;53.184;8.578;2023-07-30T09:09:27;19.17;;;5.00;;
23555;SDS011;11956;53.184;8.578;2023-07-30T09:12:29;13.68;;;4.60;;
23555;SDS011;11956;53.184;8.578;2023-07-30T09:15:34;16.43;;;4.83;;
23555;SDS011;11956;53.184;8.578;2023-07-30T09:18:44;14.88;;;4.40;;
23555;SDS011;11956;53.184;8.578;2023-07-30T09:21:46;21.73;;;5.47;;
23555;SDS011;11956;53.184;8.578;2023-07-30T09:24:47;18.65;;;5.43;;
23555;SDS011;11956;53.184;8.578;2023-07-30T09:27:49;15.07;;;5.38;;
23555;SDS011;11956;53.184;8.578;2023-07-30T09:30:51;17.25;;;4.85;;
23555;SDS011;11956;53.184;8.578;2023-07-30T09:34:01;14.15;;;4.00;;
23555;SDS011;11956;53.184;8.578;2023-07-30T09:37:02;14.32;;;4.28;;
23555;SDS011;11956;53.184;8.578;2023-07-30T09:40:04;12.50;;;3.70;;
23555;SDS011;11956;53.184;8.578;2023-07-30T09:43:12;14.27;;;4.30;;
23555;SDS011;11956;53.184;8.578;2023-07-30T09:46:13;16.65;;;3.78;;
23555;SDS011;11956;53.184;8.578;2023-07-30T09:49:14;12.68;;;3.40;;
23555;SDS011;11956;53.184;8.578;2023-07-30T09:52:16;11.93;;;3.20;;
23555;SDS011;11956;53.184;8.578;2023-07-30T09:55:17;14.10;;;3.13;;
23555;SDS011;11956;53.184;8.578;2023-07-30T09:58:21;14.93;;;3.55;;
23555;SDS011;11956;53.184;8.578;2023-07-30T10:01:22;11.88;;;3.30;;
23555;SDS011;11956;53.184;8.578;2023-07-30T10:04:26;9.48;;;2.70;;
23555;SDS011;11956;53.184;8.578;2023-07-30T10:07:28;11.63;;;3.50;;
23555;SDS011;11956;53.184;8.578;2023-07-30T10:10:30;14.80;;;3.00;;
23555;SDS011;11956;53.184;8.578;2023-07-30T10:13:32;11.60;;;2.78;;
23555;SDS011;11956;53.184;8.578;2023-07-30T10:16:33;9.55;;;2.65;;
23555;SDS011;11956;53.184;8.578;2023-07-30T10:19:34;7.65;;;1.92;;
23555;SDS011;11956;53.184;8.578;2023-07-30T10:22:35;7.53;;;2.72;;
23555;SDS011;11956;53.184;8.578;2023-07-30T10:25:46;7.10;;;2.38;;
23555;SDS011;11956;53.184;8.578;2023-07-30T10:28:52;8.32;;;2.63;;
23555;SDS011;11956;53.184;8.578;2023-07-30T10:32:13;12.80;;;2.80;;
23555;SDS011;11956;53.184;8.578;2023-07-30T10:35:34;7.60;;;2.22;;
23555;SDS011;11956;53.184;8.578;2023-07-30T10:38:41;7.57;;;2.47;;
23555;SDS011;11956;53.184;8.578;2023-07-30T10:41:45;11.80;;;3.25;;
23555;SDS011;11956;53.184;8.578;2023-07-30T10:44:49;8.32;;;2.60;;
23555;SDS011;11956;53.184;8.578;2023-07-30T10:47:50;11.20;;;2.97;;
23555;SDS011;11956;53.184;8.578;2023-07-30T10:50:51;7.97;;;2.45;;
23555;SDS011;11956;53.184;8.578;2023-07-30T10:53:52;8.90;;;2.83;;
23555;SDS011;11956;53.184;8.578;2023-07-30T10:56:53;8.60;;;2.78;;
23555;SDS011;11956;53.184;8.578;2023-07-30T10:59:54;10.77;;;3.17;;
23555;SDS011;11956;53.184;8.578;2023-07-30T11:02:56;14.07;;;3.85;;
23555;SDS011;11956;53.184;8.578;2023-07-30T11:05:57;10.35;;;3.45;;
23555;SDS011;11956;53.184;8.578;2023-07-30T11:09:00;12.85;;;3.20;;
23555;SDS011;11956;53.184;8.578;2023-07-30T11:12:01;10.25;;;2.88;;
23555;SDS011;11956;53.184;8.578;2023-07-30T11:15:03;10.07;;;2.90;;
23555;SDS011;11956;53.184;8.578;2023-07-30T11:18:05;14.15;;;3.95;;
23555;SDS011;11956;53.184;8.578;2023-07-30T11:21:08;9.23;;;2.78;;
23555;SDS011;11956;53.184;8.578;2023-07-30T11:24:12;9.60;;;3.22;;
23555;SDS011;11956;53.184;8.578;2023-07-30T11:27:13;11.07;;;2.60;;
23555;SDS011;11956;53.184;8.578;2023-07-30T11:30:14;8.95;;;2.47;;
23555;SDS011;11956;53.184;8.578;2023-07-30T11:33:15;8.85;;;2.53;;
23555;SDS011;11956;53.184;8.578;2023-07-30T11:36:20;9.38;;;2.80;;
23555;SDS011;11956;53.184;8.578;2023-07-30T11:39:23;10.25;;;3.00;;
23555;SDS011;11956;53.184;8.578;2023-07-30T11:42:24;13.45;;;3.67;;
23555;SDS011;11956;53.184;8.578;2023-07-30T11:45:25;10.68;;;2.72;;
23555;SDS011;11956;53.184;8.578;2023-07-30T11:48:26;10.10;;;2.70;;
23555;SDS011;11956;53.184;8.578;2023-07-30T11:51:27;7.68;;;2.15;;
23555;SDS011;11956;53.184;8.578;2023-07-30T11:54:29;5.63;;;2.15;;
23555;SDS011;11956;53.184;8.578;2023-07-30T11:57:35;5.22;;;1.85;;
23555;SDS011;11956;53.184;8.578;2023-07-30T12:00:36;3.72;;;1.42;;
23555;SDS011;11956;53.184;8.578;2023-07-30T12:03:39;5.55;;;1.63;;
23555;SDS011;11956;53.184;8.578;2023-07-30T12:06:42;5.10;;;2.00;;
23555;SDS011;11956;53.184;8.578;2023-07-30T12:09:51;4.70;;;1.70;;
23555;SDS011;11956;53.184;8.578;2023-07-30T12:12:52;5.60;;;1.70;;
23555;SDS011;11956;53.184;8.578;2023-07-30T12:15:54;4.93;;;1.83;;
23555;SDS011;11956;53.184;8.578;2023-07-30T12:18:56;6.57;;;2.13;;
23555;SDS011;11956;53.184;8.578;2023-07-30T12:21:57;5.60;;;1.85;;
23555;SDS011;11956;53.184;8.578;2023-07-30T12:24:57;5.75;;;1.80;;
23555;SDS011;11956;53.184;8.578;2023-07-30T12:27:58;7.95;;;2.22;;
23555;SDS011;11956;53.184;8.578;2023-07-30T12:35:16;4.07;;;1.65;;
23555;SDS011;11956;53.184;8.578;2023-07-30T12:38:17;3.67;;;1.17;;
23555;SDS011;11956;53.184;8.578;2023-07-30T12:41:17;2.85;;;1.35;;
23555;SDS011;11956;53.184;8.578;2023-07-30T12:44:25;4.15;;;1.60;;
23555;SDS011;11956;53.184;8.578;2023-07-30T12:47:26;5.30;;;1.70;;
23555;SDS011;11956;53.184;8.578;2023-07-30T12:50:27;4.30;;;1.42;;
23555;SDS011;11956;53.184;8.578;2023-07-30T12:53:28;5.88;;;1.27;;
23555;SDS011;11956;53.184;8.578;2023-07-30T12:56:29;5.63;;;1.48;;
23555;SDS011;11956;53.184;8.578;2023-07-30T12:59:29;4.85;;;1.52;;
23555;SDS011;11956;53.184;8.578;2023-07-30T13:02:31;4.65;;;1.60;;
23555;SDS011;11956;53.184;8.578;2023-07-30T13:10:07;6.22;;;1.90;;
23555;SDS011;11956;53.184;8.578;2023-07-30T13:13:09;7.63;;;1.90;;
23555;SDS011;11956;53.184;8.578;2023-07-30T13:16:10;9.23;;;2.00;;
23555;SDS011;11956;53.184;8.578;2023-07-30T13:19:10;6.97;;;2.28;;
23555;SDS011;11956;53.184;8.578;2023-07-30T13:22:11;5.60;;;1.73;;
23555;SDS011;11956;53.184;8.578;2023-07-30T13:25:12;6.20;;;1.88;;
23555;SDS011;11956;53.184;8.578;2023-07-30T13:28:13;8.60;;;2.17;;
23555;SDS011;11956;53.184;8.578;2023-07-30T13:31:14;10.57;;;1.80;;
23555;SDS011;11956;53.184;8.578;2023-07-30T13:34:15;10.20;;;2.55;;
23555;SDS011;11956;53.184;8.578;2023-07-30T13:37:16;9.13;;;3.33;;
23555;SDS011;11956;53.184;8.578;2023-07-30T13:40:17;9.73;;;1.80;;
23555;SDS011;11956;53.184;8.578;2023-07-30T13:43:18;7.43;;;1.90;;
23555;SDS011;11956;53.184;8.578;2023-07-30T13:46:18;9.63;;;3.45;;
23555;SDS011;11956;53.184;8.578;2023-07-30T13:49:20;8.43;;;2.00;;
23555;SDS011;11956;53.184;8.578;2023-07-30T14:20:52;20.95;;;2.33;;
23555;SDS011;11956;53.184;8.578;2023-07-30T14:23:53;6.80;;;1.83;;
23555;SDS011;11956;53.184;8.578;2023-07-30T14:26:54;4.72;;;1.60;;
23555;SDS011;11956;53.184;8.578;2023-07-30T14:29:55;7.82;;;1.77;;
23555;SDS011;11956;53.184;8.578;2023-07-30T14:32:56;8.00;;;1.58;;
23555;SDS011;11956;53.184;8.578;2023-07-30T14:35:57;5.07;;;1.42;;
23555;SDS011;11956;53.184;8.578;2023-07-30T14:38:58;5.40;;;1.35;;
23555;SDS011;11956;53.184;8.578;2023-07-30T14:41:59;5.45;;;1.35;;
23555;SDS011;11956;53.184;8.578;2023-07-30T14:45:00;3.80;;;1.33;;
23555;SDS011;11956;53.184;8.578;2023-07-30T14:48:01;4.25;;;1.55;;
23555;SDS011;11956;53.184;8.578;2023-07-30T14:51:02;3.65;;;1.13;;
23555;SDS011;11956;53.184;8.578;2023-07-30T14:54:02;4.63;;;1.38;;
23555;SDS011;11956;53.184;8.578;2023-07-30T14:57:04;5.53;;;1.30;;
23555;SDS011;11956;53.184;8.578;2023-07-30T15:07:32;5.35;;;1.60;;
23555;SDS011;11956;53.184;8.578;2023-07-30T15:10:33;4.13;;;1.35;;
23555;SDS011;11956;53.184;8.578;2023-07-30T15:13:35;5.63;;;1.20;;
23555;SDS011;11956;53.184;8.578;2023-07-30T15:16:35;5.13;;;1.42;;
23555;SDS011;11956;53.184;8.578;2023-07-30T15:19:38;3.30;;;1.10;;
23555;SDS011;11956;53.184;8.578;2023-07-30T15:22:39;4.05;;;1.00;;
23555;SDS011;11956;53.184;8.578;2023-07-30T15:44:19;3.92;;;1.33;;
23555;SDS011;11956;53.184;8.578;2023-07-30T15:47:20;6.43;;;1.60;;
23555;SDS011;11956;53.184;8.578;2023-07-30T15:50:21;4.65;;;1.10;;
23555;SDS011;11956;53.184;8.578;2023-07-30T15:53:24;5.68;;;1.30;;
23555;SDS011;11956;53.184;8.578;2023-07-30T15:56:24;6.65;;;1.48;;
23555;SDS011;11956;53.184;8.578;2023-07-30T16:46:29;6.35;;;1.10;;
23555;SDS011;11956;53.184;8.578;2023-07-30T17:07:27;3.05;;;1.10;;
23555;SDS011;11956;53.184;8.578;2023-07-30T17:10:28;3.13;;;0.73;;
23555;SDS011;11956;53.184;8.578;2023-07-30T17:13:29;5.70;;;1.30;;
23555;SDS011;11956;53.184;8.578;2023-07-30T17:16:30;5.07;;;1.63;;
23555;SDS011;11956;53.184;8.578;2023-07-30T17:19:31;5.47;;;1.00;;
23555;SDS011;11956;53.184;8.578;2023-07-30T17:22:32;4.30;;;0.90;;
23555;SDS011;11956;53.184;8.578;2023-07-30T17:25:33;1.50;;;0.60;;
23555;SDS011;11956;53.184;8.578;2023-07-30T17:37:32;4.47;;;1.20;;
23555;SDS011;11956;53.184;8.578;2023-07-30T17:40:33;8.15;;;1.90;;
23555;SDS011;11956;53.184;8.578;2023-07-30T17:43:36;3.67;;;0.80;;
23555;SDS011;11956;53.184;8.578;2023-07-30T17:46:38;6.30;;;1.30;;
23555;SDS011;11956;53.184;8.578;2023-07-30T17:49:39;4.05;;;1.00;;
23555;SDS011;11956;53.184;8.578;2023-07-30T17:52:40;4.68;;;1.30;;
23555;SDS011;11956;53.184;8.578;2023-07-30T17:55:41;5.95;;;1.60;;
23555;SDS011;11956;53.184;8.578;2023-07-30T19:18:58;2.42;;;1.00;;
23555;SDS011;11956;53.184;8.578;2023-07-30T19:22:00;3.60;;;1.35;;
23555;SDS011;11956;53.184;8.578;2023-07-30T19:38:03;4.00;;;1.20;;
23555;SDS011;11956;53.184;8.578;2023-07-30T19:41:06;4.30;;;1.10;;
23555;SDS011;11956;53.184;8.578;2023-07-30T19:44:07;2.72;;;0.82;;
23555;SDS011;11956;53.184;8.578;2023-07-30T19:47:08;4.10;;;0.98;;
23555;SDS011;11956;53.184;8.578;2023-07-30T19:50:09;3.88;;;1.25;;
23555;SDS011;11956;53.184;8.578;2023-07-30T19:53:10;2.33;;;0.90;;
23555;SDS011;11956;53.184;8.578;2023-07-30T19:56:11;4.25;;;0.82;;
23555;SDS011;11956;53.184;8.578;2023-07-30T19:59:12;5.45;;;0.90;;
23555;SDS011;11956;53.184;8.578;2023-07-30T20:02:13;4.22;;;0.90;;
23555;SDS011;11956;53.184;8.578;2023-07-30T20:05:14;5.47;;;2.13;;
23555;SDS011;11956;53.184;8.578;2023-07-30T20:08:16;5.10;;;0.77;;
23555;SDS011;11956;53.184;8.578;2023-07-30T20:11:17;5.55;;;1.60;;
23555;SDS011;11956;53.184;8.578;2023-07-30T20:14:18;4.85;;;1.17;;
23555;SDS011;11956;53.184;8.578;2023-07-30T20:17:19;4.70;;;1.10;;
23555;SDS011;11956;53.184;8.578;2023-07-30T20:20:20;6.22;;;1.52;;
23555;SDS011;11956;53.184;8.578;2023-07-30T20:23:22;3.20;;;1.05;;
23555;SDS011;11956;53.184;8.578;2023-07-30T20:26:24;2.08;;;0.90;;
23555;SDS011;11956;53.184;8.578;2023-07-30T20:29:25;5.75;;;1.42;;
23555;SDS011;11956;53.184;8.578;2023-07-30T20:32:26;4.85;;;0.90;;
23555;SDS011;11956;53.184;8.578;2023-07-30T20:35:27;4.15;;;1.30;;
23555;SDS011;11956;53.184;8.578;2023-07-30T20:38:28;4.20;;;1.00;;
23555;SDS011;11956;53.184;8.578;2023-07-30T20:41:29;5.18;;;1.00;;
23555;SDS011;11956;53.184;8.578;2023-07-30T20:44:30;7.45;;;1.70;;
23555;SDS011;11956;53.184;8.578;2023-07-30T20:47:31;6.55;;;1.42;;
23555;SDS011;11956;53.184;8.578;2023-07-30T20:50:32;6.88;;;1.60;;
23555;SDS011;11956;53.184;8.578;2023-07-30T20:53:33;9.35;;;1.42;;
23555;SDS011;11956;53.184;8.578;2023-07-30T20:56:34;5.63;;;1.50;;
23555;SDS011;11956;53.184;8.578;2023-07-30T20:59:35;5.80;;;1.38;;
23555;SDS011;11956;53.184;8.578;2023-07-30T21:02:39;7.50;;;1.52;;
23555;SDS011;11956;53.184;8.578;2023-07-30T21:05:40;9.73;;;1.80;;
23555;SDS011;11956;53.184;8.578;2023-07-30T21:08:41;3.75;;;1.33;;
23555;SDS011;11956;53.184;8.578;2023-07-30T21:11:42;11.73;;;2.35;;
23555;SDS011;11956;53.184;8.578;2023-07-30T21:14:43;8.98;;;2.53;;
23555;SDS011;11956;53.184;8.578;2023-07-30T21:17:44;6.97;;;2.20;;
23555;SDS011;11956;53.184;8.578;2023-07-30T21:20:45;12.85;;;2.17;;
23555;SDS011;11956;53.184;8.578;2023-07-30T21:23:46;8.20;;;1.67;;
23555;SDS011;11956;53.184;8.578;2023-07-30T21:26:48;8.45;;;1.70;;
23555;SDS011;11956;53.184;8.578;2023-07-30T21:29:50;8.63;;;2.15;;
23555;SDS011;11956;53.184;8.578;2023-07-30T21:32:51;9.02;;;2.00;;
23555;SDS011;11956;53.184;8.578;2023-07-30T21:35:52;7.53;;;2.10;;
23555;SDS011;11956;53.184;8.578;2023-07-30T21:38:53;10.98;;;2.28;;
23555;SDS011;11956;53.184;8.578;2023-07-30T21:41:54;9.77;;;1.90;;
23555;SDS011;11956;53.184;8.578;2023-07-30T21:44:54;8.43;;;1.80;;
23555;SDS011;11956;53.184;8.578;2023-07-30T21:47:56;9.13;;;2.30;;
23555;SDS011;11956;53.184;8.578;2023-07-30T21:50:58;5.47;;;1.67;;